EBBR/BRU METAR and TAF weather

Enter ICAO airport designator
Station Type Date Time Source
EBBR METAR 2021/05/10 00:20 UTC NOAA

EBBR 100020Z 17006KT CAVOK 17/12 Q0999 NOSIG


Station Type Date Time Source
EBBR Decoded METAR 2021/05/10 00:20 UTC NOAA

Bruxelles National, Belgium (EBBR) 50-54N 004-32E 58M
May 09, 2021 - 08:20 PM EDT / 2021.05.10 0020 UTC
Wind: from the S (170 degrees) at 7 MPH (6 KT):0
Visibility: greater than 7 mile(s):0
Temperature: 62 F (17 C)
Dew Point: 53 F (12 C)
Relative Humidity: 72%
Pressure (altimeter): 29.50 in. Hg (0999 hPa)
ob: EBBR 100020Z 17006KT CAVOK 17/12 Q0999 NOSIG
cycle: 0

Station Type Date Time Source
EBBR TAF 2021/05/09 18:28 UTC NOAA

TAF EBBR 091710Z 0918/1024 18008KT CAVOK PROB40
TEMPO 0918/0922 23025G37KT 2500 SHRA TSRAGR
TEMPO 1003/1009 22017G28KT PROB30
TEMPO 1004/1008 4500 RA SHRA PROB30
TEMPO 1009/1015 21015G25KT

Example: see airport list